Snowflake, Arizona
Current Conditions -  °F | °C
As of 12:55 PM on Wednesday 17 Dec 2014 (Local Time) from KSOW Reporting Station
Overcast Overcast  
Wind Chill: 24°   Ceiling: 600
Heat Index: 34°   Visibility: 9mi
Dew Point: 32°   Wind: 14mph
Humidity: 93%   Direction: 220°SW
Pressure: 30.05"   Gusts: 20mph
Location:  34.51°N, 110.08°W
Report Text: KSOW 171955Z AUTO 22012G17KT 9SM OVC006 01/00 A3005 RMK AO2
Loading
Personal Weather Stations






























Interactive Weather Map New forecast layout! Learn more

10-Day Weather Forecast

Advertisements
Track Severe Weather on mobile